Time;durP1;ratioP1;P1;durP2;ratioP2;P2;SDS_P1;SDS_P2;PMS_P1;PMS_P2;Temp;Humidity;BMP_temperature;BMP_pressure;BME280_temperature;BME280_humidity;BME280_pressure;Samples;Min_cycle;Max_cycle;Signal;HPM_P1;HPM_P2
2022/01/10 00:00:44;;;;;;;;;54.75;45.25;;;;;11.22;92.52;100737.34;5064462;28;61969;-74
2022/01/10 00:03:10;;;;;;;;;61.50;46.75;;;;;11.20;93.00;100739.06;5064563;27;61782;-75
2022/01/10 00:05:36;;;;;;;;;60.25;46.25;;;;;11.25;92.73;100755.00;5063712;28;61673;-74
2022/01/10 00:08:04;;;;;;;;;63.75;49.50;;;;;11.23;92.41;100757.56;5063590;28;61815;-75
2022/01/10 00:10:30;;;;;;;;;68.75;53.00;;;;;11.20;92.72;100751.25;5063176;28;61928;-75
2022/01/10 00:12:56;;;;;;;;;69.00;52.25;;;;;11.25;92.72;100757.63;5064423;28;61706;-75
2022/01/10 00:15:21;;;;;;;;;66.25;52.25;;;;;11.29;92.23;100770.06;5063470;28;61780;-74
2022/01/10 00:17:47;;;;;;;;;64.00;51.25;;;;;11.31;92.46;100772.72;5064236;28;61753;-74
2022/01/10 00:20:16;;;;;;;;;62.25;52.00;;;;;11.35;92.44;100787.78;5063742;28;62456;-74
2022/01/10 00:22:45;;;;;;;;;60.75;49.00;;;;;11.27;91.84;100790.13;5062800;28;62197;-75
2022/01/10 00:25:13;;;;;;;;;68.75;48.25;;;;;11.20;90.53;100791.59;5078755;28;64602;-74
2022/01/10 00:27:39;;;;;;;;;61.75;48.75;;;;;11.21;89.59;100787.22;5064057;28;61754;-75
2022/01/10 00:30:05;;;;;;;;;62.25;46.75;;;;;11.17;89.67;100783.56;5063710;28;61775;-75
2022/01/10 00:32:31;;;;;;;;;65.50;47.75;;;;;11.12;89.89;100786.81;5064156;28;61841;-74
2022/01/10 00:34:57;;;;;;;;;59.25;48.00;;;;;11.17;91.06;100793.19;5075087;28;64792;-75
2022/01/10 00:37:22;;;;;;;;;62.75;48.50;;;;;11.18;91.31;100789.72;5043382;28;61812;-74
2022/01/10 00:39:49;;;;;;;;;62.00;49.25;;;;;11.24;90.03;100796.13;5043417;28;61916;-75
2022/01/10 00:42:16;;;;;;;;;64.00;49.00;;;;;11.29;91.56;100801.59;5043758;28;61817;-75
2022/01/10 00:44:46;;;;;;;;;66.75;48.75;;;;;11.32;92.41;100795.56;5041654;28;62692;-75
2022/01/10 00:47:12;;;;;;;;;64.00;50.50;;;;;11.40;92.72;100799.41;5043519;28;61811;-74
2022/01/10 00:49:38;;;;;;;;;59.25;44.50;;;;;11.42;91.85;100806.50;5043522;28;62032;-75
2022/01/10 00:52:04;;;;;;;;;64.75;49.00;;;;;11.43;91.95;100805.66;5043615;28;61876;-74
2022/01/10 00:54:30;;;;;;;;;56.00;46.25;;;;;11.44;92.02;100810.09;5041832;28;64151;-75
2022/01/10 00:56:55;;;;;;;;;57.25;47.00;;;;;11.45;92.06;100805.72;5043400;28;61758;-75
2022/01/10 00:59:20;;;;;;;;;59.75;50.50;;;;;11.42;92.32;100805.63;5043481;28;62529;-75
2022/01/10 01:01:46;;;;;;;;;71.00;52.00;;;;;11.39;92.50;100802.84;5076398;28;61910;-75
2022/01/10 01:04:12;;;;;;;;;62.00;48.00;;;;;11.38;92.69;100804.59;5042487;28;62603;-75
2022/01/10 01:06:37;;;;;;;;;61.75;49.75;;;;;11.45;92.33;100816.25;5043385;28;61893;-75
2022/01/10 01:09:07;;;;;;;;;65.00;51.75;;;;;11.40;92.16;100820.44;5042448;28;61896;-75
2022/01/10 01:14:06;;;;;;;;;61.25;49.25;;;;;11.39;92.49;100840.53;5042798;28;61875;-75
2022/01/10 01:24:21;;;;;;;;;61.00;50.25;;;;;11.49;92.55;100856.72;5042555;28;62211;-75
2022/01/10 01:26:49;;;;;;;;;69.00;54.75;;;;;11.45;90.71;100853.94;5042959;28;61794;-75
2022/01/10 01:29:23;;;;;;;;;66.50;53.00;;;;;11.48;91.97;100865.41;5043252;28;61976;-75
2022/01/10 01:31:49;;;;;;;;;66.75;51.75;;;;;11.42;92.38;100860.81;5042000;28;61853;-75
2022/01/10 01:34:15;;;;;;;;;64.50;52.00;;;;;11.43;92.30;100868.75;5044485;28;63632;-75
2022/01/10 01:36:45;;;;;;;;;58.25;47.00;;;;;11.39;92.25;100871.19;5041531;28;61707;-75
2022/01/10 01:39:32;;;;;;;;;64.25;49.75;;;;;11.38;92.35;100877.28;5041877;28;62163;-75
2022/01/10 01:42:06;;;;;;;;;69.25;50.75;;;;;11.37;91.80;100884.25;5043002;28;62096;-75
2022/01/10 01:44:32;;;;;;;;;63.00;49.00;;;;;11.36;92.07;100887.72;5040948;28;64739;-75
2022/01/10 01:46:58;;;;;;;;;66.25;50.50;;;;;11.35;91.68;100896.41;5043119;28;61710;-75
2022/01/10 01:49:24;;;;;;;;;57.50;45.75;;;;;11.32;91.94;100898.94;5042513;28;61831;-75
2022/01/10 01:51:49;;;;;;;;;69.25;49.75;;;;;11.29;91.79;100904.06;5042820;28;61687;-75
2022/01/10 01:54:15;;;;;;;;;66.50;49.00;;;;;11.28;91.82;100906.63;5040875;28;63537;-75
2022/01/10 01:56:40;;;;;;;;;60.25;47.50;;;;;11.29;91.76;100909.31;5042117;28;61886;-75
2022/01/10 01:59:09;;;;;;;;;59.00;46.25;;;;;11.26;91.81;100907.44;5042941;28;61707;-75
2022/01/10 02:01:34;;;;;;;;;58.00;45.25;;;;;11.24;91.47;100911.72;5042696;28;61881;-75
2022/01/10 02:04:00;;;;;;;;;59.00;43.00;;;;;11.23;91.51;100912.56;5041863;28;62586;-75
2022/01/10 02:06:25;;;;;;;;;56.00;45.00;;;;;11.20;91.22;100915.09;5042385;28;61824;-74
2022/01/10 02:08:51;;;;;;;;;62.75;45.75;;;;;11.19;91.34;100912.38;5042661;28;61967;-75
2022/01/10 02:11:16;;;;;;;;;59.25;44.75;;;;;11.13;91.45;100915.63;5042784;28;61898;-75
2022/01/10 02:13:43;;;;;;;;;58.50;45.25;;;;;11.15;91.21;100928.84;5041643;28;62780;-74
2022/01/10 02:16:11;;;;;;;;;64.50;50.25;;;;;11.15;90.81;100934.97;5041161;28;61778;-75
2022/01/10 02:18:37;;;;;;;;;61.00;44.25;;;;;11.13;90.72;100928.75;5042001;28;61933;-75
2022/01/10 02:21:05;;;;;;;;;62.00;46.25;;;;;11.11;90.74;100935.66;5041996;28;61884;-74
2022/01/10 02:26:52;;;;;;;;;57.00;46.25;;;;;11.04;90.97;100926.63;5042171;28;61996;-75
2022/01/10 02:29:18;;;;;;;;;53.75;43.75;;;;;11.09;90.65;100939.06;5042323;28;61857;-74
2022/01/10 02:31:44;;;;;;;;;58.00;43.75;;;;;11.03;91.20;100932.72;5041874;28;61828;-75
2022/01/10 02:34:10;;;;;;;;;60.00;47.50;;;;;10.97;89.65;100926.28;5043729;28;63647;-75
2022/01/10 02:36:36;;;;;;;;;59.50;47.75;;;;;10.95;89.58;100925.34;5041831;28;61730;-75
2022/01/10 02:39:08;;;;;;;;;63.75;48.25;;;;;10.96;90.76;100924.47;5042105;28;61916;-75
2022/01/10 02:41:38;;;;;;;;;64.25;48.75;;;;;10.98;91.00;100942.09;5041998;28;61870;-75
2022/01/10 02:44:07;;;;;;;;;61.25;49.00;;;;;10.94;90.27;100945.41;5056692;28;63823;-75
2022/01/10 02:46:35;;;;;;;;;61.75;47.00;;;;;10.91;90.16;100953.16;5041760;28;61921;-74
2022/01/10 02:49:00;;;;;;;;;61.50;47.25;;;;;10.88;90.63;100953.00;5042105;28;61761;-75
2022/01/10 02:51:26;;;;;;;;;63.25;48.75;;;;;10.82;90.15;100943.16;5040612;28;61885;-75
2022/01/10 02:53:52;;;;;;;;;62.25;50.75;;;;;10.80;90.08;100963.19;5041245;28;62459;-74
2022/01/10 02:56:17;;;;;;;;;64.00;49.00;;;;;10.78;90.79;100966.56;5040001;28;61868;-75
2022/01/10 02:58:42;;;;;;;;;65.25;51.75;;;;;10.77;90.56;100975.25;5057227;28;61888;-75
2022/01/10 03:01:09;;;;;;;;;64.75;51.00;;;;;10.80;91.03;100976.31;5040721;28;62059;-75
2022/01/10 03:03:34;;;;;;;;;64.25;51.50;;;;;10.79;90.76;100977.13;5041111;28;62821;-75
2022/01/10 03:06:01;;;;;;;;;66.00;51.25;;;;;10.80;90.75;100980.66;5041577;28;61878;-74
2022/01/10 03:08:28;;;;;;;;;65.75;52.50;;;;;10.77;90.27;100977.88;5040675;28;62136;-74
2022/01/10 03:10:54;;;;;;;;;69.75;54.25;;;;;10.72;90.22;100977.69;5041782;28;61846;-75
2022/01/10 03:13:20;;;;;;;;;66.50;52.25;;;;;10.74;90.10;100975.13;5041128;28;62047;-75
2022/01/10 03:15:46;;;;;;;;;68.00;54.00;;;;;10.72;90.44;100976.78;5041483;28;62086;-74
2022/01/10 03:18:12;;;;;;;;;64.25;48.00;;;;;10.67;90.39;100979.19;5041818;28;62068;-75
2022/01/10 03:20:37;;;;;;;;;65.50;51.75;;;;;10.70;90.07;100989.84;5041419;28;61922;-75
2022/01/10 03:23:03;;;;;;;;;63.50;49.50;;;;;10.66;90.08;100989.63;5040993;28;62584;-75
2022/01/10 03:25:29;;;;;;;;;64.00;50.25;;;;;10.63;89.74;100996.53;5041395;28;61941;-75
2022/01/10 03:27:54;;;;;;;;;62.75;50.00;;;;;10.60;89.79;100999.00;5041554;28;61996;-75
2022/01/10 03:30:19;;;;;;;;;70.00;56.33;;;;;10.64;90.15;101002.66;5041517;28;61956;-74
2022/01/10 03:32:48;;;;;;;;;68.00;52.33;;;;;10.63;90.22;101007.03;5043005;28;62729;-75
2022/01/10 03:35:14;;;;;;;;;71.75;57.00;;;;;10.58;90.22;101005.00;5047517;28;61853;-75
2022/01/10 03:37:39;;;;;;;;;71.50;55.50;;;;;10.61;90.13;101020.91;5044767;28;61774;-74
2022/01/10 03:40:06;;;;;;;;;68.50;51.75;;;;;10.61;90.01;101020.91;5044753;28;61852;-75
2022/01/10 03:42:32;;;;;;;;;64.00;53.00;;;;;10.59;90.16;101023.44;5044145;28;62911;-75
2022/01/10 03:44:58;;;;;;;;;72.75;55.75;;;;;10.59;90.08;101023.44;5044335;28;61944;-75
2022/01/10 03:47:23;;;;;;;;;65.00;51.00;;;;;10.56;90.02;101025.94;5060393;28;61832;-75
2022/01/10 03:49:49;;;;;;;;;61.25;49.25;;;;;10.56;89.81;101025.00;5044964;28;61787;-74
2022/01/10 03:52:15;;;;;;;;;68.00;51.50;;;;;10.57;89.30;101032.09;5043828;28;61916;-74
2022/01/10 03:54:41;;;;;;;;;64.00;51.50;;;;;10.52;90.00;101025.69;5044697;28;61848;-75
2022/01/10 03:57:06;;;;;;;;;67.00;52.25;;;;;10.55;90.20;101032.00;5044412;28;62155;-74
2022/01/10 03:59:33;;;;;;;;;63.25;49.00;;;;;10.55;89.81;101034.63;5044664;28;62001;-74
2022/01/10 04:01:58;;;;;;;;;68.00;48.50;;;;;10.56;89.97;101046.00;5043886;28;61965;-75
2022/01/10 04:04:24;;;;;;;;;63.25;52.00;;;;;10.55;89.73;101044.22;5044651;28;62001;-75
2022/01/10 04:06:50;;;;;;;;;70.00;53.33;;;;;10.53;88.32;101052.03;5044248;28;61794;-75
2022/01/10 04:09:19;;;;;;;;;71.25;50.00;;;;;10.40;87.74;101052.25;5044675;28;62030;-74
2022/01/10 04:11:44;;;;;;;;;58.50;48.25;;;;;10.37;88.99;101058.25;5043786;28;61754;-75
2022/01/10 04:14:10;;;;;;;;;62.50;49.25;;;;;10.41;88.53;101064.53;5043960;28;62041;-75
2022/01/10 04:16:35;;;;;;;;;69.50;54.75;;;;;10.41;88.94;101064.53;5044325;28;61794;-75
2022/01/10 04:19:01;;;;;;;;;62.00;51.50;;;;;10.35;89.16;101064.25;5059741;27;62162;-74
2022/01/10 04:21:26;;;;;;;;;70.25;52.50;;;;;10.35;89.39;101075.66;5043478;28;62868;-75
2022/01/10 04:23:51;;;;;;;;;69.75;55.50;;;;;10.33;89.10;101074.66;5059559;28;61952;-74
2022/01/10 04:26:17;;;;;;;;;70.25;52.25;;;;;10.33;89.37;101072.03;5059460;28;61958;-75
2022/01/10 04:28:42;;;;;;;;;68.00;53.00;;;;;10.27;89.08;101074.31;5044133;28;61972;-74
2022/01/10 04:31:10;;;;;;;;;65.00;51.00;;;;;10.26;88.91;101079.47;5043328;28;61780;-75
2022/01/10 04:33:35;;;;;;;;;55.50;45.75;;;;;10.23;89.15;101080.22;5051505;28;61989;-75
2022/01/10 04:36:01;;;;;;;;;70.00;50.75;;;;;10.22;88.41;101094.19;5063789;28;61772;-75
2022/01/10 04:38:26;;;;;;;;;59.25;47.00;;;;;10.17;88.36;101091.31;5064549;28;61867;-75
2022/01/10 04:40:53;;;;;;;;;68.00;53.00;;;;;10.17;88.58;101095.66;5063302;28;61751;-75
2022/01/10 04:43:19;;;;;;;;;72.00;55.50;;;;;10.10;88.69;101083.06;5063939;28;61702;-74
2022/01/10 04:45:44;;;;;;;;;59.50;48.50;;;;;10.11;88.66;101095.34;5079899;28;61840;-75
2022/01/10 04:48:10;;;;;;;;;67.00;51.00;;;;;10.09;89.07;101110.09;5063756;28;61743;-74
2022/01/10 04:53:04;;;;;;;;;74.33;57.67;;;;;10.04;88.60;101122.97;5063858;28;61851;-75
2022/01/10 04:55:29;;;;;;;;;69.25;53.25;;;;;10.00;88.75;101127.19;5062366;28;61858;-75
2022/01/10 04:57:55;;;;;;;;;73.25;56.25;;;;;9.97;88.70;101120.88;5063806;28;62143;-75
2022/01/10 05:00:20;;;;;;;;;67.67;55.33;;;;;9.93;88.31;101129.41;5063335;28;62668;-75
2022/01/10 05:02:49;;;;;;;;;74.33;55.67;;;;;9.92;88.63;101130.19;5063626;28;61851;-75
2022/01/10 05:05:14;;;;;;;;;67.33;55.00;;;;;9.88;88.51;101138.75;5062441;28;62328;-75
2022/01/10 05:07:40;;;;;;;;;69.75;54.25;;;;;9.85;88.69;101139.47;5063831;28;61861;-75
2022/01/10 05:10:06;;;;;;;;;64.50;50.25;;;;;9.83;88.36;101141.09;5062854;28;61961;-75
2022/01/10 05:12:31;;;;;;;;;73.00;52.75;;;;;9.81;88.55;101148.00;5063441;28;62010;-75
2022/01/10 05:14:57;;;;;;;;;68.50;52.25;;;;;9.82;88.50;101152.44;5063592;28;62097;-75
2022/01/10 05:17:24;;;;;;;;;67.75;53.25;;;;;9.82;88.09;101162.91;5063571;28;61787;-74
2022/01/10 05:19:50;;;;;;;;;74.33;54.33;;;;;9.82;88.03;101169.06;5063105;28;61798;-74
2022/01/10 05:22:16;;;;;;;;;70.00;55.25;;;;;9.79;88.38;101157.50;5063186;28;61772;-74
2022/01/10 05:24:41;;;;;;;;;68.75;51.00;;;;;9.78;88.21;101167.09;5063544;28;61761;-75
2022/01/10 05:27:07;;;;;;;;;66.75;54.50;;;;;9.75;88.03;101174.78;5062946;28;61860;-75
2022/01/10 05:29:33;;;;;;;;;69.00;54.00;;;;;9.74;88.07;101179.94;5062822;28;61844;-75
2022/01/10 05:31:59;;;;;;;;;65.00;51.67;;;;;9.71;88.38;101179.78;5063236;28;61722;-74
2022/01/10 05:34:24;;;;;;;;;66.67;51.33;;;;;9.69;88.31;101181.44;5048751;28;61925;-75
2022/01/10 05:36:50;;;;;;;;;65.33;52.33;;;;;9.67;88.08;101190.94;5043052;28;61978;-74
2022/01/10 05:39:16;;;;;;;;;67.25;50.50;;;;;9.65;88.08;101195.19;5042155;28;62635;-74
2022/01/10 05:41:42;;;;;;;;;66.00;53.00;;;;;9.61;88.27;101194.09;5042952;28;61933;-75
2022/01/10 05:44:08;;;;;;;;;67.67;54.00;;;;;9.60;88.33;101197.56;5042767;28;61841;-75
2022/01/10 05:46:36;;;;;;;;;69.00;54.33;;;;;9.65;88.00;101205.66;5043270;28;62004;-74
2022/01/10 05:49:03;;;;;;;;;70.00;53.33;;;;;9.63;87.96;101205.56;5042427;28;62739;-75
2022/01/10 05:51:34;;;;;;;;;73.33;58.33;;;;;9.55;87.63;101199.91;5042508;28;61872;-74
2022/01/10 05:54:01;;;;;;;;;73.67;56.00;;;;;9.58;88.12;101210.56;5042867;28;61949;-74
2022/01/10 05:56:26;;;;;;;;;67.33;51.33;;;;;9.54;87.71;101216.47;5041991;28;61743;-74
2022/01/10 05:58:52;;;;;;;;;65.33;50.67;;;;;9.56;87.48;101217.44;5042094;28;62604;-75
2022/01/10 06:01:17;;;;;;;;;74.00;58.00;;;;;9.49;88.11;101219.63;5042644;28;61707;-74
2022/01/10 06:03:42;;;;;;;;;76.00;55.25;;;;;9.48;87.60;101231.84;5042740;28;61908;-75
2022/01/10 06:06:08;;;;;;;;;72.67;55.00;;;;;9.46;87.70;101238.72;5042724;28;62238;-75
2022/01/10 06:08:33;;;;;;;;;70.67;55.67;;;;;9.44;87.67;101239.44;5041716;28;62863;-74
2022/01/10 06:10:59;;;;;;;;;68.33;54.33;;;;;9.46;87.63;101241.31;5042332;28;61927;-75
2022/01/10 06:13:24;;;;;;;;;66.00;53.33;;;;;9.40;87.78;101247.16;5042306;28;61834;-74
2022/01/10 06:15:51;;;;;;;;;73.67;54.00;;;;;9.40;87.75;101260.25;5042653;28;61739;-74
2022/01/10 06:18:17;;;;;;;;;74.33;56.00;;;;;9.41;87.82;101269.00;5041658;28;61909;-74
2022/01/10 06:20:42;;;;;;;;;65.33;54.00;;;;;9.37;87.93;101274.88;5042220;28;61945;-74
2022/01/10 06:23:09;;;;;;;;;69.33;53.67;;;;;9.32;87.84;101271.06;5042282;28;61814;-75
2022/01/10 06:25:35;;;;;;;;;70.00;53.33;;;;;9.33;87.28;101289.50;5049125;28;61879;-75
2022/01/10 06:28:00;;;;;;;;;68.00;53.33;;;;;9.28;87.17;101274.38;5056922;28;64534;-75
2022/01/10 06:30:27;;;;;;;;;78.33;59.00;;;;;9.24;86.26;101280.25;5041972;28;62003;-75
2022/01/10 06:32:52;;;;;;;;;73.00;57.00;;;;;9.19;86.76;101290.41;5043480;28;61961;-74
2022/01/10 06:35:17;;;;;;;;;81.00;59.00;;;;;9.22;87.33;101293.22;5061581;28;62081;-75
2022/01/10 06:37:43;;;;;;;;;65.00;54.00;;;;;9.18;86.52;101294.75;5061198;28;62854;-75
2022/01/10 06:40:10;;;;;;;;;76.33;57.33;;;;;9.18;86.51;101299.09;5060322;28;61880;-75
2022/01/10 06:42:35;;;;;;;;;72.33;53.67;;;;;9.19;87.98;101311.38;5045170;28;61814;-75
2022/01/10 06:45:01;;;;;;;;;68.00;54.33;;;;;9.23;87.90;101315.97;5060394;28;61916;-75
2022/01/10 06:47:26;;;;;;;;;74.00;57.67;;;;;9.26;87.86;101317.91;5060746;28;61623;-75
2022/01/10 06:49:52;;;;;;;;;80.67;60.00;;;;;9.28;88.20;101325.03;5060085;28;61968;-73
2022/01/10 06:52:17;;;;;;;;;81.00;58.33;;;;;9.27;87.46;101336.31;5056260;28;61827;-75
2022/01/10 06:54:43;;;;;;;;;67.00;54.67;;;;;9.27;86.50;101349.41;5041434;28;61794;-75
2022/01/10 06:57:09;;;;;;;;;71.67;54.33;;;;;9.30;87.64;101353.94;5059400;28;64010;-74
2022/01/10 06:59:35;;;;;;;;;73.67;56.00;;;;;9.30;87.17;101354.84;5073275;27;61885;-75
2022/01/10 07:02:00;;;;;;;;;85.00;59.00;;;;;9.32;87.16;101365.38;5041516;28;62015;-73
2022/01/10 07:04:27;;;;;;;;;79.67;58.00;;;;;9.33;86.13;101368.09;5041596;28;61870;-73
2022/01/10 07:06:54;;;;;;;;;68.33;56.33;;;;;9.32;86.55;101382.03;5040959;28;62616;-73
2022/01/10 07:09:20;;;;;;;;;72.00;56.00;;;;;9.22;84.99;101379.69;5043539;28;62216;-73
2022/01/10 07:11:45;;;;;;;;;77.00;56.33;;;;;9.17;84.42;101387.25;5044643;28;61656;-73
2022/01/10 07:14:12;;;;;;;;;65.33;51.00;;;;;9.11;85.06;101397.38;5044895;28;61725;-73
2022/01/10 07:16:38;;;;;;;;;73.00;54.33;;;;;9.19;85.75;101411.84;5047274;28;62708;-74
2022/01/10 07:19:05;;;;;;;;;73.67;53.67;;;;;9.20;85.59;101424.09;5063599;28;61821;-73
2022/01/10 07:21:30;;;;;;;;;79.67;55.33;;;;;9.23;85.79;101439.09;5064493;28;61930;-73
2022/01/10 07:23:56;;;;;;;;;74.67;55.33;;;;;9.25;85.80;101442.72;5064883;28;61981;-74
2022/01/10 07:26:22;;;;;;;;;68.75;51.25;;;;;9.34;86.46;101444.97;5045266;28;62797;-72
2022/01/10 07:28:48;;;;;;;;;71.00;51.67;;;;;9.38;85.59;101449.59;5044678;28;61870;-73
2022/01/10 07:31:13;;;;;;;;;73.00;53.33;;;;;9.36;86.58;101453.81;5044822;28;61803;-73
2022/01/10 07:33:39;;;;;;;;;70.50;55.25;;;;;9.38;86.60;101457.44;5056555;28;61777;-74
2022/01/10 07:36:04;;;;;;;;;66.00;51.50;;;;;9.43;86.88;101463.88;5063134;28;61777;-72
2022/01/10 07:38:35;;;;;;;;;71.33;55.67;;;;;9.50;87.25;101470.41;5063994;28;61851;-76
2022/01/10 07:41:03;;;;;;;;;70.75;54.00;;;;;9.55;88.02;101469.84;5064303;28;61772;-75
2022/01/10 07:43:28;;;;;;;;;66.67;51.33;;;;;9.65;87.33;101478.25;5072031;28;61999;-74
2022/01/10 07:45:53;;;;;;;;;60.75;48.00;;;;;9.67;87.58;101480.16;5062096;28;61767;-75
2022/01/10 07:48:19;;;;;;;;;66.00;53.00;;;;;9.72;87.02;101493.53;5064316;28;61776;-75
2022/01/10 07:50:44;;;;;;;;;70.50;50.25;;;;;9.72;85.91;101504.91;5063120;28;61713;-75
2022/01/10 07:53:10;;;;;;;;;64.25;48.50;;;;;9.69;86.69;101503.84;5064199;28;61701;-76
2022/01/10 07:55:36;;;;;;;;;65.75;52.00;;;;;9.72;86.52;101510.16;5061428;28;64679;-77
2022/01/10 07:58:01;;;;;;;;;62.25;50.25;;;;;9.70;86.27;101517.03;5063644;28;61774;-77
2022/01/10 08:00:27;;;;;;;;;61.75;49.50;;;;;9.67;85.37;101521.19;5064196;28;61725;-77
2022/01/10 08:02:52;;;;;;;;;69.25;48.00;;;;;9.66;85.65;101524.63;5079400;27;61951;-77
2022/01/10 08:05:18;;;;;;;;;58.00;46.00;;;;;9.65;86.35;101522.81;5063269;28;61906;-76
2022/01/10 08:07:43;;;;;;;;;68.25;46.50;;;;;9.70;86.75;101529.22;5063929;28;61941;-76
2022/01/10 08:10:09;;;;;;;;;55.00;45.75;;;;;9.74;85.32;101549.59;5079755;28;62024;-76
2022/01/10 08:12:34;;;;;;;;;56.75;46.25;;;;;9.74;85.62;101553.09;5064237;28;61838;-77
2022/01/10 08:15:00;;;;;;;;;69.50;48.75;;;;;9.71;85.23;101555.56;5063216;28;62107;-76
2022/01/10 08:17:25;;;;;;;;;66.00;53.25;;;;;9.69;84.93;101556.28;5071490;28;61920;-77
2022/01/10 08:19:50;;;;;;;;;71.50;53.50;;;;;9.70;84.51;101553.72;5043312;28;61764;-77
2022/01/10 08:22:16;;;;;;;;;70.75;52.50;;;;;9.72;84.77;101554.72;5043862;28;61735;-77
2022/01/10 08:24:42;;;;;;;;;68.50;53.75;;;;;9.82;86.07;101558.81;5043015;28;62549;-77
2022/01/10 08:27:07;;;;;;;;;74.25;51.25;;;;;9.90;86.31;101565.44;5043264;28;61920;-75
2022/01/10 08:29:33;;;;;;;;;70.00;52.75;;;;;10.00;86.04;101565.16;5043770;28;61897;-77
2022/01/10 08:31:58;;;;;;;;;59.75;50.50;;;;;10.04;84.79;101569.75;5043586;28;61913;-77
2022/01/10 08:34:24;;;;;;;;;60.75;46.25;;;;;10.08;85.72;101572.56;5055549;28;63932;-76
2022/01/10 08:36:54;;;;;;;;;66.75;47.75;;;;;10.14;84.29;101581.69;5062144;28;61844;-73
2022/01/10 08:39:20;;;;;;;;;64.00;49.00;;;;;10.13;84.57;101589.47;5063631;28;61897;-76
2022/01/10 08:41:46;;;;;;;;;53.75;43.75;;;;;10.20;84.86;101602.16;5063941;28;61848;-77
2022/01/10 08:44:14;;;;;;;;;55.50;41.00;;;;;10.21;85.02;101591.72;5062374;28;62279;-76
2022/01/10 08:46:40;;;;;;;;;58.75;41.75;;;;;10.22;83.37;101593.56;5063538;28;61742;-77
2022/01/10 08:49:06;;;;;;;;;55.00;42.75;;;;;10.29;84.70;101599.16;5061144;28;61925;-77
2022/01/10 08:51:32;;;;;;;;;60.25;43.75;;;;;10.34;85.19;101605.63;5062961;28;61702;-73
2022/01/10 08:53:59;;;;;;;;;53.00;41.75;;;;;10.42;85.35;101605.25;5062457;28;61839;-76
2022/01/10 08:56:24;;;;;;;;;63.50;42.50;;;;;10.54;85.32;101607.69;5059137;28;61807;-74
2022/01/10 08:58:50;;;;;;;;;58.50;41.50;;;;;10.58;83.93;101614.00;5057141;28;61905;-77
2022/01/10 09:01:17;;;;;;;;;55.50;41.75;;;;;10.66;85.26;101624.94;5078959;28;61970;-74
2022/01/10 09:03:43;;;;;;;;;54.25;41.50;;;;;10.70;84.13;101619.97;5062653;28;62479;-76
2022/01/10 09:06:08;;;;;;;;;57.25;43.25;;;;;10.73;83.63;101628.03;5062907;28;62268;-77
2022/01/10 09:08:41;;;;;;;;;50.75;39.00;;;;;10.74;84.23;101635.06;5063444;28;61751;-77
2022/01/10 09:11:06;;;;;;;;;56.00;40.25;;;;;10.77;83.53;101643.13;5078936;27;61967;-76
2022/01/10 09:13:32;;;;;;;;;52.75;39.00;;;;;10.78;84.03;101646.66;5062557;28;62535;-76
2022/01/10 09:15:58;;;;;;;;;40.50;35.25;;;;;10.77;82.77;101653.63;5063160;28;61902;-76
2022/01/10 09:18:23;;;;;;;;;32.50;29.00;;;;;10.77;83.40;101668.47;5062788;28;61697;-76
2022/01/10 09:20:51;;;;;;;;;40.50;32.00;;;;;10.79;83.85;101675.63;5062219;28;61762;-76
2022/01/10 09:23:17;;;;;;;;;28.50;23.25;;;;;10.75;81.64;101680.63;5057157;28;61853;-76
2022/01/10 09:25:44;;;;;;;;;26.75;23.50;;;;;10.73;82.75;101683.19;5062969;28;61741;-76
2022/01/10 09:28:09;;;;;;;;;32.00;25.25;;;;;10.67;81.40;101680.19;5062972;28;61735;-76
2022/01/10 09:30:35;;;;;;;;;31.00;23.50;;;;;10.76;83.44;101672.84;5077620;27;62044;-76
2022/01/10 09:33:00;;;;;;;;;36.50;29.50;;;;;10.83;82.62;101685.50;5060808;28;64879;-76
2022/01/10 09:35:26;;;;;;;;;31.75;22.25;;;;;10.91;82.23;101685.94;5058440;28;61735;-76
2022/01/10 09:37:51;;;;;;;;;32.75;20.75;;;;;11.00;83.05;101688.19;5053863;28;61932;-76
2022/01/10 09:40:18;;;;;;;;;37.50;34.75;;;;;11.00;82.21;101683.84;5053247;28;61769;-76
2022/01/10 09:42:45;;;;;;;;;40.00;35.25;;;;;11.10;83.01;101692.22;5064330;28;63868;-76
2022/01/10 09:45:10;;;;;;;;;39.50;33.50;;;;;11.13;83.27;101693.31;5062045;28;61763;-76
2022/01/10 09:47:36;;;;;;;;;47.25;35.25;;;;;11.18;82.31;101691.88;5058582;28;61961;-76
2022/01/10 09:50:03;;;;;;;;;44.75;35.50;;;;;11.25;82.15;101696.66;5059007;28;61806;-76
2022/01/10 09:52:29;;;;;;;;;39.50;32.00;;;;;11.31;82.97;101698.72;5043589;28;61959;-76
2022/01/10 09:54:55;;;;;;;;;146.67;116.00;;;;;11.34;81.59;101714.66;5042430;28;61890;-78
2022/01/10 09:57:21;;;;;;;;;56.50;42.50;;;;;11.35;81.65;101719.06;5042091;28;61811;-73
2022/01/10 09:59:47;;;;;;;;;37.75;34.75;;;;;11.42;81.79;101725.63;5041933;28;62068;-74
2022/01/10 10:02:15;;;;;;;;;55.00;41.25;;;;;11.44;81.74;101726.59;5045128;28;63801;-73
2022/01/10 10:04:41;;;;;;;;;42.25;32.75;;;;;11.45;82.09;101733.66;5046705;28;61813;-76
2022/01/10 10:07:07;;;;;;;;;44.00;36.75;;;;;11.40;80.50;101738.66;5042173;28;61737;-76
2022/01/10 10:09:33;;;;;;;;;42.75;36.50;;;;;11.39;81.79;101735.94;5042144;28;61719;-76
2022/01/10 10:12:00;;;;;;;;;41.75;33.75;;;;;11.49;82.31;101738.28;5056646;28;63732;-76
2022/01/10 10:14:26;;;;;;;;;46.50;37.50;;;;;11.50;81.88;101741.81;5041936;28;61830;-76
2022/01/10 10:16:57;;;;;;;;;37.75;31.50;;;;;11.50;81.72;101745.31;5041922;28;61838;-76
2022/01/10 10:19:28;;;;;;;;;48.25;35.75;;;;;11.44;80.18;101740.66;5041922;28;61727;-76
2022/01/10 10:21:56;;;;;;;;;42.75;34.00;;;;;11.38;80.27;101753.44;5041361;28;62140;-76
2022/01/10 10:24:22;;;;;;;;;48.00;32.25;;;;;11.33;80.34;101751.38;5057016;28;61877;-76
2022/01/10 10:26:49;;;;;;;;;34.25;29.50;;;;;11.40;81.27;101753.53;5057650;28;61796;-81
2022/01/10 10:29:17;;;;;;;;;48.50;35.25;;;;;11.50;81.40;101758.47;5060974;28;61819;-74
2022/01/10 10:31:49;;;;;;;;;40.50;33.00;;;;;11.58;80.48;101756.28;5060034;28;62681;-74
2022/01/10 10:34:33;;;;;;;;;47.00;37.25;;;;;11.49;80.46;101759.31;5060838;28;62300;-74
2022/01/10 10:37:07;;;;;;;;;41.50;28.50;;;;;11.57;80.15;101751.88;5061276;28;62006;-74
2022/01/10 10:39:41;;;;;;;;;43.00;33.25;;;;;11.69;81.74;101756.88;5061777;28;62101;-74
2022/01/10 10:42:09;;;;;;;;;53.75;39.00;;;;;11.70;79.54;101756.97;5061184;28;61724;-74
2022/01/10 10:44:35;;;;;;;;;55.50;34.25;;;;;11.53;78.53;101769.19;5060010;28;62042;-74
2022/01/10 10:47:00;;;;;;;;;40.25;33.75;;;;;11.46;78.99;101769.63;5061599;28;61963;-74
2022/01/10 10:49:34;;;;;;;;;39.75;31.75;;;;;11.40;79.04;101775.47;5062172;28;61844;-74
2022/01/10 10:52:03;;;;;;;;;49.75;37.75;;;;;11.30;79.43;101778.38;5059510;28;64041;-74
2022/01/10 10:54:31;;;;;;;;;51.25;41.00;;;;;11.35;80.08;101787.44;5060379;28;61835;-74
2022/01/10 10:56:59;;;;;;;;;56.50;41.25;;;;;11.50;81.08;101787.38;5059805;28;61816;-74
2022/01/10 10:59:29;;;;;;;;;56.75;42.00;;;;;11.58;81.49;101783.47;5061653;28;62455;-74
2022/01/10 11:01:55;;;;;;;;;56.00;40.00;;;;;11.71;80.90;101786.81;5059119;28;63831;-74
2022/01/10 11:04:20;;;;;;;;;57.50;40.25;;;;;11.81;81.24;101784.78;5058937;28;61870;-73
2022/01/10 11:06:46;;;;;;;;;51.25;38.75;;;;;11.81;80.01;101779.50;5050543;28;61857;-73
2022/01/10 11:09:13;;;;;;;;;48.00;35.75;;;;;11.83;80.35;101792.75;5049200;28;62110;-73
2022/01/10 11:11:43;;;;;;;;;38.75;36.00;;;;;11.87;79.68;101794.75;5049972;28;62093;-73
2022/01/10 11:14:11;;;;;;;;;53.00;40.75;;;;;11.87;80.52;101787.75;5065294;28;61967;-74
2022/01/10 11:16:38;;;;;;;;;51.25;38.00;;;;;11.96;79.92;101791.75;5049601;28;61969;-73
2022/01/10 11:19:16;;;;;;;;;41.50;36.00;;;;;11.98;79.87;101792.72;5049211;28;61741;-74
2022/01/10 11:21:51;;;;;;;;;51.50;38.75;;;;;11.97;78.30;101785.63;5052127;28;61927;-73
2022/01/10 11:24:46;;;;;;;;;43.50;36.50;;;;;12.02;80.10;101790.34;5076366;28;61905;-73